Bering Dawn — WDF2490 — position and weather

sailwx.info

Track history (hours):
 
Tides and Currents Weather Stations Pressure Air Temp Water Temp Dewpoint Dewpoint Depression Visibility Wind Speed Wind Dir Waves Ship Positions

Bering Dawn

Owner: Bering Dawn, LLC, Gretna, LA. More information available from US FCC via Universal Licensing System and Coast Guard Vessel Documentation Center.

Last reported at 2018-Jun-19 02:11 UTC. Time now 2018-Jun-20 12:55 UTC.
Position N 32°45' W 079°53'.

; draft 4 m.

Type: Tow > 200 m length. MMSI: 367311550.

Date/timePositionNaut miles runAvg speedWind from/ knotsBaromVisibWave heightAir tempDewpointWater temp
2018-Jun-19 02:11N 32°45' W 079°53'1 4.3
2018-Jun-19 01:54N 32°46' W 079°54'0 0.2
2018-Jun-19 00:41N 32°45' W 079°54'0 0.1
2018-Jun-19 00:30N 32°45' W 079°54'0 0.1
2018-Jun-18 23:58N 32°45' W 079°54'0 0.1
2018-Jun-18 23:29N 32°45' W 079°54'0 0.1
2018-Jun-18 22:55N 32°45' W 079°54'  
2018-Jun-14 03:51N 32°46' W 079°53'1 2.1
2018-Jun-14 03:29N 32°45' W 079°54'0 0.0
2018-Jun-14 02:58N 32°45' W 079°54'0 0.4
2018-Jun-14 02:19N 32°45' W 079°54'0 0.0
2018-Jun-14 01:55N 32°45' W 079°54'0 0.0
2018-Jun-14 01:30N 32°45' W 079°54'0 0.0
2018-Jun-13 21:50N 32°45' W 079°54'0 0.0
2018-Jun-13 21:30N 32°45' W 079°54'0 0.0
2018-Jun-13 20:47N 32°45' W 079°54'0 0.0
2018-Jun-13 20:30N 32°45' W 079°54'0 0.0
2018-Jun-13 20:00N 32°45' W 079°54'0 0.1
2018-Jun-13 19:30N 32°45' W 079°54'2 2.1
2018-Jun-13 18:29N 32°45' W 079°52'2 3.2
2018-Jun-13 17:59N 32°45' W 079°54'0 0.1
2018-Jun-13 16:38N 32°45' W 079°54'0 0.1
2018-Jun-13 16:30N 32°45' W 079°54'1 1.1
2018-Jun-13 15:57N 32°45' W 079°54'0 0.0
2018-Jun-13 15:29N 32°45' W 079°54'0 0.0
2018-Jun-13 14:56N 32°45' W 079°54'0 0.0
2018-Jun-13 14:30N 32°45' W 079°54'0 0.0
2018-Jun-13 13:59N 32°45' W 079°54'0 0.0
2018-Jun-13 13:28N 32°45' W 079°54'0 0.0
2018-Jun-13 13:00N 32°45' W 079°54'0 0.0
2018-Jun-13 12:30N 32°45' W 079°54'0 0.0
2018-Jun-13 12:00N 32°45' W 079°54'0 0.0
2018-Jun-13 11:30N 32°45' W 079°54'0 0.0
2018-Jun-13 10:52N 32°45' W 079°54'0 0.0
2018-Jun-13 10:30N 32°45' W 079°54'0 0.0
2018-Jun-13 09:59N 32°45' W 079°54'0 0.0
2018-Jun-13 09:25N 32°45' W 079°54'0 0.0
2018-Jun-13 07:54N 32°45' W 079°54'0 0.0
2018-Jun-13 07:30N 32°45' W 079°54'0 0.0
2018-Jun-13 06:58N 32°45' W 079°54'0 0.0
2018-Jun-13 06:31N 32°45' W 079°54'0 0.0
2018-Jun-13 06:00N 32°45' W 079°54'0 0.0
2018-Jun-13 05:29N 32°45' W 079°54'0 0.0
2018-Jun-13 04:49N 32°45' W 079°54'0 0.0
2018-Jun-13 04:21N 32°45' W 079°54'0 0.0
2018-Jun-13 02:36N 32°45' W 079°54'0 0.0
2018-Jun-13 02:24N 32°45' W 079°54'0 0.0
2018-Jun-13 02:00N 32°45' W 079°54'0 0.0
2018-Jun-13 01:30N 32°45' W 079°54'0 0.0
2018-Jun-13 01:00N 32°45' W 079°54'2 3.9
2018-Jun-13 00:30N 32°47' W 079°55'3 5.8
2018-Jun-13 00:00N 32°50' W 079°57'0 0.0
2018-Jun-12 23:30N 32°50' W 079°57'0 0.0
2018-Jun-12 22:59N 32°50' W 079°57'0 0.0
2018-Jun-12 22:30N 32°50' W 079°57'0 0.0
2018-Jun-12 21:49N 32°50' W 079°57'0 0.0
2018-Jun-12 06:21N 32°50' W 079°56'3 8.4
2018-Jun-12 06:00N 32°47' W 079°55'1 0.2
2018-Jun-12 01:22N 32°47' W 079°54'3 0.4
2018-Jun-11 17:40N 32°49' W 079°56'2 9.2
2018-Jun-11 17:30N 32°48' W 079°55'3 5.4
2018-Jun-11 17:00N 32°45' W 079°54'1 1.6
2018-Jun-11 16:29N 32°45' W 079°53'1 0.0
2018-Jun-10 22:34N 32°46' W 079°54'0 2.2
2018-Jun-10 22:30N 32°45' W 079°54'0 0.1
2018-Jun-10 22:00N 32°45' W 079°54'0 0.0
2018-Jun-10 20:56N 32°45' W 079°54'0 0.1
2018-Jun-10 20:28N 32°45' W 079°54'  
Track history (hours):
 
Tides and Currents Weather Stations Pressure Air Temp Water Temp Dewpoint Dewpoint Depression Visibility Wind Speed Wind Dir Waves Ship Positions

Bering Dawn

Owner: Bering Dawn, LLC, Gretna, LA. More information available from US FCC via Universal Licensing System and Coast Guard Vessel Documentation Center.

Last reported at 2018-Jun-19 02:11 UTC. Time now 2018-Jun-20 12:55 UTC.
Position N 32°45' W 079°53'.

; draft 4 m.

Type: Tow > 200 m length. MMSI: 367311550.

Date/timePositionNaut miles runAvg speedWind from/ knotsBaromVisibWave heightAir tempDewpointWater temp
2018-Jun-19 02:11N 32°45' W 079°53'1 4.3
2018-Jun-19 01:54N 32°46' W 079°54'0 0.2
2018-Jun-19 00:41N 32°45' W 079°54'0 0.1
2018-Jun-19 00:30N 32°45' W 079°54'0 0.1
2018-Jun-18 23:58N 32°45' W 079°54'0 0.1
2018-Jun-18 23:29N 32°45' W 079°54'0 0.1
2018-Jun-18 22:55N 32°45' W 079°54'  
2018-Jun-14 03:51N 32°46' W 079°53'1 2.1
2018-Jun-14 03:29N 32°45' W 079°54'0 0.0
2018-Jun-14 02:58N 32°45' W 079°54'0 0.4
2018-Jun-14 02:19N 32°45' W 079°54'0 0.0
2018-Jun-14 01:55N 32°45' W 079°54'0 0.0
2018-Jun-14 01:30N 32°45' W 079°54'0 0.0
2018-Jun-13 21:50N 32°45' W 079°54'0 0.0
2018-Jun-13 21:30N 32°45' W 079°54'0 0.0
2018-Jun-13 20:47N 32°45' W 079°54'0 0.0
2018-Jun-13 20:30N 32°45' W 079°54'0 0.0
2018-Jun-13 20:00N 32°45' W 079°54'0 0.1
2018-Jun-13 19:30N 32°45' W 079°54'2 2.1
2018-Jun-13 18:29N 32°45' W 079°52'2 3.2
2018-Jun-13 17:59N 32°45' W 079°54'0 0.1
2018-Jun-13 16:38N 32°45' W 079°54'0 0.1
2018-Jun-13 16:30N 32°45' W 079°54'1 1.1
2018-Jun-13 15:57N 32°45' W 079°54'0 0.0
2018-Jun-13 15:29N 32°45' W 079°54'0 0.0
2018-Jun-13 14:56N 32°45' W 079°54'0 0.0
2018-Jun-13 14:30N 32°45' W 079°54'0 0.0
2018-Jun-13 13:59N 32°45' W 079°54'0 0.0
2018-Jun-13 13:28N 32°45' W 079°54'0 0.0
2018-Jun-13 13:00N 32°45' W 079°54'0 0.0
2018-Jun-13 12:30N 32°45' W 079°54'0 0.0
2018-Jun-13 12:00N 32°45' W 079°54'0 0.0
2018-Jun-13 11:30N 32°45' W 079°54'0 0.0
2018-Jun-13 10:52N 32°45' W 079°54'0 0.0
2018-Jun-13 10:30N 32°45' W 079°54'0 0.0
2018-Jun-13 09:59N 32°45' W 079°54'0 0.0
2018-Jun-13 09:25N 32°45' W 079°54'0 0.0
2018-Jun-13 07:54N 32°45' W 079°54'0 0.0
2018-Jun-13 07:30N 32°45' W 079°54'0 0.0
2018-Jun-13 06:58N 32°45' W 079°54'0 0.0
2018-Jun-13 06:31N 32°45' W 079°54'0 0.0
2018-Jun-13 06:00N 32°45' W 079°54'0 0.0
2018-Jun-13 05:29N 32°45' W 079°54'0 0.0
2018-Jun-13 04:49N 32°45' W 079°54'0 0.0
2018-Jun-13 04:21N 32°45' W 079°54'0 0.0
2018-Jun-13 02:36N 32°45' W 079°54'0 0.0
2018-Jun-13 02:24N 32°45' W 079°54'0 0.0
2018-Jun-13 02:00N 32°45' W 079°54'0 0.0
2018-Jun-13 01:30N 32°45' W 079°54'0 0.0
2018-Jun-13 01:00N 32°45' W 079°54'2 3.9
2018-Jun-13 00:30N 32°47' W 079°55'3 5.8
2018-Jun-13 00:00N 32°50' W 079°57'0 0.0
2018-Jun-12 23:30N 32°50' W 079°57'0 0.0
2018-Jun-12 22:59N 32°50' W 079°57'0 0.0
2018-Jun-12 22:30N 32°50' W 079°57'0 0.0
2018-Jun-12 21:49N 32°50' W 079°57'0 0.0
2018-Jun-12 06:21N 32°50' W 079°56'3 8.4
2018-Jun-12 06:00N 32°47' W 079°55'1 0.2
2018-Jun-12 01:22N 32°47' W 079°54'3 0.4
2018-Jun-11 17:40N 32°49' W 079°56'2 9.2
2018-Jun-11 17:30N 32°48' W 079°55'3 5.4
2018-Jun-11 17:00N 32°45' W 079°54'1 1.6
2018-Jun-11 16:29N 32°45' W 079°53'1 0.0
2018-Jun-10 22:34N 32°46' W 079°54'0 2.2
2018-Jun-10 22:30N 32°45' W 079°54'0 0.1
2018-Jun-10 22:00N 32°45' W 079°54'0 0.0
2018-Jun-10 20:56N 32°45' W 079°54'0 0.1
2018-Jun-10 20:28N 32°45' W 079°54'  

Dump ship's entire track history